createdAt,value
2022-10-31T00:01:11.414Z,10.75
2022-10-31T00:03:38.505Z,12.68
2022-10-31T00:06:05.604Z,14.02
2022-10-31T00:08:32.659Z,15.10
2022-10-31T00:10:59.716Z,14.82
2022-10-31T00:13:26.792Z,10.98
2022-10-31T00:15:53.981Z,11.88
2022-10-31T00:18:21.119Z,11.02
2022-10-31T00:20:48.188Z,17.05
2022-10-31T00:23:15.271Z,11.50
2022-10-31T00:25:42.329Z,11.23
2022-10-31T00:28:11.121Z,13.23
2022-10-31T00:30:38.224Z,17.02
2022-10-31T00:33:06.232Z,19.08
2022-10-31T00:35:33.527Z,19.05
2022-10-31T00:38:00.885Z,16.27
2022-10-31T00:40:27.979Z,16.33
2022-10-31T00:42:55.179Z,15.95
2022-10-31T00:45:22.279Z,17.92
2022-10-31T00:47:49.442Z,18.58
2022-10-31T00:50:16.550Z,16.00
2022-10-31T00:52:43.612Z,18.80
2022-10-31T00:55:10.711Z,16.88
2022-10-31T00:57:37.757Z,16.52
2022-10-31T01:00:05.227Z,19.83
2022-10-31T01:02:32.435Z,17.15
2022-10-31T01:04:59.639Z,12.10
2022-10-31T01:07:26.715Z,12.43
2022-10-31T01:09:53.778Z,11.52
2022-10-31T01:12:20.861Z,16.00
2022-10-31T01:14:47.935Z,15.65
2022-10-31T01:17:15.184Z,9.77
2022-10-31T01:19:42.263Z,12.43
2022-10-31T01:22:09.341Z,9.98
2022-10-31T01:24:36.408Z,10.32
2022-10-31T01:27:03.979Z,15.98
2022-10-31T01:29:31.042Z,13.40
2022-10-31T01:31:58.144Z,18.02
2022-10-31T01:34:25.221Z,12.90
2022-10-31T01:36:52.528Z,11.60
2022-10-31T01:39:20.348Z,13.95
2022-10-31T01:41:49.002Z,14.27
2022-10-31T01:44:16.097Z,9.05
2022-10-31T01:47:00.598Z,7.80
2022-10-31T01:49:41.044Z,11.20
2022-10-31T01:52:14.083Z,6.85
2022-10-31T01:54:47.381Z,13.77
2022-10-31T01:57:15.534Z,12.68
2022-10-31T01:59:45.818Z,11.20
2022-10-31T02:02:13.830Z,10.57
2022-10-31T02:04:41.388Z,9.77
2022-10-31T02:07:12.222Z,8.05
2022-10-31T02:09:39.741Z,10.25
2022-10-31T02:12:07.453Z,12.13
2022-10-31T02:14:35.055Z,12.55
2022-10-31T02:17:02.325Z,8.23
2022-10-31T02:19:37.562Z,10.75
2022-10-31T02:22:11.505Z,10.05
2022-10-31T02:24:56.808Z,12.70
2022-10-31T02:27:26.597Z,17.55
2022-10-31T02:30:05.485Z,12.13
2022-10-31T02:32:47.408Z,14.93
2022-10-31T02:35:33.568Z,9.95
2022-10-31T02:38:09.777Z,13.45
2022-10-31T02:40:46.959Z,10.55
2022-10-31T02:45:58.330Z,12.07
2022-10-31T02:48:28.729Z,8.30
2022-10-31T02:51:01.321Z,10.88
2022-10-31T02:53:28.375Z,9.77
2022-10-31T02:55:55.418Z,8.82
2022-10-31T02:58:24.113Z,11.32
2022-10-31T03:01:06.377Z,7.63
2022-10-31T03:03:52.386Z,11.07
2022-10-31T03:06:25.245Z,7.00
2022-10-31T03:08:56.719Z,10.07
2022-10-31T03:11:25.732Z,9.68
2022-10-31T03:13:58.736Z,8.55
2022-10-31T03:16:37.826Z,7.78
2022-10-31T03:19:10.395Z,8.43
2022-10-31T03:21:40.924Z,7.78
2022-10-31T03:24:08.841Z,12.05
2022-10-31T03:26:40.136Z,11.88
2022-10-31T03:29:08.101Z,9.88
2022-10-31T03:31:40.573Z,9.00
2022-10-31T03:34:09.206Z,10.25
2022-10-31T03:36:37.661Z,10.05
2022-10-31T03:39:06.175Z,9.20
2022-10-31T03:41:35.862Z,13.60
2022-10-31T03:44:05.342Z,13.98
2022-10-31T03:46:32.449Z,11.02
2022-10-31T03:49:00.373Z,14.63
2022-10-31T03:51:31.758Z,17.73
2022-10-31T03:54:05.824Z,13.77
2022-10-31T03:56:41.873Z,11.00
2022-10-31T03:59:27.669Z,12.35
2022-10-31T04:01:57.660Z,11.32
2022-10-31T04:04:25.465Z,11.73
2022-10-31T04:06:54.028Z,11.00
2022-10-31T04:09:21.833Z,12.35
2022-10-31T04:11:50.940Z,15.77
2022-10-31T04:14:18.033Z,9.48
2022-10-31T04:16:45.857Z,13.77
2022-10-31T04:19:13.555Z,8.98
2022-10-31T04:21:40.636Z,12.13
2022-10-31T04:24:07.870Z,13.88
2022-10-31T04:26:34.931Z,11.55
2022-10-31T04:29:02.191Z,9.02
2022-10-31T04:31:29.306Z,12.43
2022-10-31T04:33:56.443Z,8.98
2022-10-31T04:36:23.557Z,10.60
2022-10-31T04:38:50.601Z,6.95
2022-10-31T04:41:17.706Z,11.35
2022-10-31T04:43:44.757Z,10.18
2022-10-31T04:46:11.821Z,7.15
2022-10-31T04:48:38.953Z,11.20
2022-10-31T04:51:06.111Z,12.40
2022-10-31T04:53:33.305Z,13.27
2022-10-31T04:56:01.545Z,10.73
2022-10-31T04:58:29.437Z,9.88
2022-10-31T05:00:57.097Z,12.02
2022-10-31T05:03:24.282Z,9.77
2022-10-31T05:05:51.450Z,8.98
2022-10-31T05:08:18.547Z,12.88
2022-10-31T05:10:45.740Z,11.98
2022-10-31T05:13:12.933Z,7.55
2022-10-31T05:15:40.056Z,12.73
2022-10-31T05:18:07.193Z,11.05
2022-10-31T05:20:34.357Z,16.90
2022-10-31T05:23:01.518Z,8.48
2022-10-31T05:25:29.527Z,11.07
2022-10-31T05:27:57.516Z,10.00
2022-10-31T05:30:26.614Z,12.32
2022-10-31T05:32:53.857Z,77.80
2022-10-31T05:35:23.660Z,82.57
2022-10-31T05:37:50.790Z,55.83
2022-10-31T05:40:18.788Z,36.33
2022-10-31T05:42:45.915Z,36.15
2022-10-31T05:45:17.127Z,27.80
2022-10-31T05:47:51.658Z,41.75
2022-10-31T05:50:18.905Z,44.83
2022-10-31T05:52:46.148Z,35.97
2022-10-31T05:55:13.233Z,31.27
2022-10-31T05:57:40.419Z,25.88
2022-10-31T06:00:07.772Z,16.13
2022-10-31T06:02:35.512Z,15.95
2022-10-31T06:05:03.057Z,12.20
2022-10-31T06:07:33.999Z,14.50
2022-10-31T06:10:01.649Z,8.93
2022-10-31T06:12:30.707Z,12.77
2022-10-31T06:14:57.945Z,12.20
2022-10-31T06:17:25.065Z,14.25
2022-10-31T06:19:52.133Z,9.48
2022-10-31T06:22:19.256Z,16.15
2022-10-31T06:24:46.384Z,12.40
2022-10-31T06:27:13.496Z,13.20
2022-10-31T06:29:40.577Z,13.10
2022-10-31T06:32:07.659Z,11.45
2022-10-31T06:34:34.729Z,14.02
2022-10-31T06:37:01.783Z,10.23
2022-10-31T06:39:29.453Z,12.77
2022-10-31T06:41:56.590Z,8.75
2022-10-31T06:44:23.649Z,11.18
2022-10-31T06:46:51.066Z,8.05
2022-10-31T06:49:18.137Z,11.40
2022-10-31T06:51:45.316Z,10.57
2022-10-31T06:54:12.397Z,15.38
2022-10-31T06:56:39.517Z,9.95
2022-10-31T06:59:06.764Z,7.47
2022-10-31T07:01:33.995Z,13.13
2022-10-31T07:04:01.134Z,9.30
2022-10-31T07:06:28.209Z,7.57
2022-10-31T07:08:55.284Z,9.02
2022-10-31T07:11:22.334Z,14.07
2022-10-31T07:13:49.411Z,15.88
2022-10-31T07:16:16.761Z,10.70
2022-10-31T07:18:43.829Z,13.30
2022-10-31T07:21:10.952Z,10.25
2022-10-31T07:23:38.019Z,12.73
2022-10-31T07:26:05.161Z,16.75
2022-10-31T07:28:32.239Z,14.00
2022-10-31T07:30:59.438Z,12.98
2022-10-31T07:33:27.293Z,18.42
2022-10-31T07:35:54.987Z,48.28
2022-10-31T07:38:22.220Z,45.42
2022-10-31T07:40:53.692Z,31.33
2022-10-31T07:43:20.848Z,24.90
2022-10-31T07:45:52.100Z,27.52
2022-10-31T07:48:19.168Z,11.20
2022-10-31T07:50:47.077Z,25.13
2022-10-31T07:53:14.856Z,31.85
2022-10-31T07:55:42.085Z,21.05
2022-10-31T07:58:13.773Z,16.98
2022-10-31T08:00:42.018Z,19.83
2022-10-31T08:03:16.660Z,24.85
2022-10-31T08:05:45.731Z,25.77
2022-10-31T08:08:13.289Z,28.00
2022-10-31T08:10:41.433Z,24.80
2022-10-31T08:13:09.708Z,29.40
2022-10-31T08:15:40.006Z,28.20
2022-10-31T08:18:07.456Z,18.45
2022-10-31T08:20:34.542Z,25.92
2022-10-31T08:23:02.515Z,26.95
2022-10-31T08:25:33.898Z,20.10
2022-10-31T08:28:04.955Z,21.92
2022-10-31T08:30:33.531Z,18.63
2022-10-31T08:33:00.866Z,14.50
2022-10-31T08:35:28.023Z,15.48
2022-10-31T08:37:56.181Z,18.77
2022-10-31T08:40:23.843Z,18.02
2022-10-31T08:42:58.550Z,15.27
2022-10-31T08:45:26.020Z,12.68
2022-10-31T08:47:53.448Z,19.23
2022-10-31T08:50:20.828Z,17.63
2022-10-31T08:53:04.184Z,18.27
2022-10-31T08:55:32.123Z,18.63
2022-10-31T08:58:00.379Z,17.23
2022-10-31T09:00:27.755Z,17.77
2022-10-31T09:02:58.727Z,15.25
2022-10-31T09:05:26.101Z,17.50
2022-10-31T09:07:57.232Z,13.13
2022-10-31T09:10:24.534Z,9.88
2022-10-31T09:13:02.154Z,18.25
2022-10-31T09:15:30.021Z,11.00
2022-10-31T09:17:57.718Z,15.40
2022-10-31T09:20:25.009Z,12.95
2022-10-31T09:22:59.021Z,15.10
2022-10-31T09:25:26.220Z,11.77
2022-10-31T09:27:57.714Z,14.60
2022-10-31T09:30:25.599Z,16.48
2022-10-31T09:32:59.730Z,11.82
2022-10-31T09:35:27.026Z,10.40
2022-10-31T09:38:01.581Z,10.88
2022-10-31T09:40:34.407Z,10.18
2022-10-31T09:43:16.000Z,12.18
2022-10-31T09:45:56.199Z,13.10
2022-10-31T09:48:23.263Z,9.02
2022-10-31T09:50:55.493Z,7.22
2022-10-31T09:53:26.291Z,10.15
2022-10-31T09:55:53.556Z,8.73
2022-10-31T09:58:22.164Z,9.15
2022-10-31T10:00:49.790Z,13.68
2022-10-31T10:03:33.471Z,12.77
2022-10-31T10:06:00.529Z,7.45
2022-10-31T10:08:29.674Z,15.02
2022-10-31T10:11:15.703Z,11.15
2022-10-31T10:13:48.570Z,12.40
2022-10-31T10:16:38.666Z,11.07
2022-10-31T10:19:08.609Z,11.50
2022-10-31T10:21:47.543Z,8.75
2022-10-31T10:24:22.025Z,10.63
2022-10-31T10:26:54.952Z,11.10
2022-10-31T10:29:43.950Z,10.18
2022-10-31T10:32:14.139Z,11.80
2022-10-31T10:34:52.523Z,7.85
2022-10-31T10:37:25.537Z,9.75
2022-10-31T10:39:55.694Z,11.00
2022-10-31T10:42:42.620Z,9.55
2022-10-31T10:45:36.034Z,11.85
2022-10-31T10:48:23.377Z,11.55
2022-10-31T10:50:51.684Z,12.00
2022-10-31T10:53:32.832Z,8.38
2022-10-31T10:56:06.362Z,10.38
2022-10-31T10:58:33.507Z,10.43
2022-10-31T11:01:00.690Z,13.70
2022-10-31T11:03:27.877Z,12.60
2022-10-31T11:05:55.947Z,10.35
2022-10-31T11:08:29.354Z,12.25
2022-10-31T11:10:59.696Z,10.43
2022-10-31T11:13:36.357Z,15.25
2022-10-31T11:16:23.023Z,17.40
2022-10-31T11:19:05.977Z,11.45
2022-10-31T11:21:35.596Z,10.20
2022-10-31T11:24:24.617Z,13.02
2022-10-31T11:27:13.520Z,11.93
2022-10-31T11:29:42.926Z,9.85
2022-10-31T11:32:19.169Z,15.48
2022-10-31T11:34:56.580Z,12.30
2022-10-31T11:37:37.314Z,8.93
2022-10-31T11:40:08.461Z,12.05
2022-10-31T11:42:42.859Z,13.77
2022-10-31T11:45:18.006Z,10.98
2022-10-31T11:47:48.322Z,12.57
2022-10-31T11:50:21.341Z,10.77
2022-10-31T11:52:49.597Z,10.55
2022-10-31T11:55:19.732Z,11.73
2022-10-31T11:57:48.007Z,12.98
2022-10-31T12:00:24.078Z,12.65
2022-10-31T12:02:51.712Z,9.25
2022-10-31T12:05:24.768Z,13.85
2022-10-31T12:07:52.031Z,13.05
2022-10-31T12:10:21.079Z,10.57
2022-10-31T12:12:54.074Z,18.38
2022-10-31T12:15:29.219Z,10.10
2022-10-31T12:18:14.848Z,14.40
2022-10-31T12:20:54.169Z,17.45
2022-10-31T12:23:27.110Z,10.38
2022-10-31T12:25:54.214Z,14.63
2022-10-31T12:28:24.545Z,10.13
2022-10-31T12:30:51.616Z,15.73
2022-10-31T12:33:30.676Z,16.20
2022-10-31T12:35:59.280Z,12.48
2022-10-31T12:38:29.391Z,14.70
2022-10-31T12:41:02.567Z,16.33
2022-10-31T12:43:38.529Z,13.50
2022-10-31T12:46:09.479Z,9.63
2022-10-31T12:48:51.637Z,11.52
2022-10-31T12:51:34.823Z,13.43
2022-10-31T12:54:25.237Z,14.40
2022-10-31T12:57:02.037Z,8.77
2022-10-31T12:59:29.418Z,13.70
2022-10-31T13:02:01.038Z,14.38
2022-10-31T13:04:37.452Z,16.73
2022-10-31T13:07:09.182Z,15.63
2022-10-31T13:09:40.463Z,11.68
2022-10-31T13:12:12.639Z,12.93
2022-10-31T13:15:01.124Z,14.23
2022-10-31T13:17:40.683Z,12.60
2022-10-31T13:20:17.413Z,20.60
2022-10-31T13:22:46.291Z,14.40
2022-10-31T13:25:18.617Z,14.90
2022-10-31T13:28:04.178Z,17.23
2022-10-31T13:30:38.249Z,14.15
2022-10-31T13:33:10.601Z,17.60
2022-10-31T13:35:40.769Z,20.88
2022-10-31T13:38:20.977Z,14.25
2022-10-31T13:41:00.045Z,17.63
2022-10-31T13:43:27.178Z,13.27
2022-10-31T13:45:55.368Z,17.08
2022-10-31T13:48:40.185Z,13.05
2022-10-31T13:51:08.970Z,18.83
2022-10-31T13:53:40.516Z,19.27
2022-10-31T13:56:10.525Z,15.23
2022-10-31T13:58:38.060Z,15.65
2022-10-31T14:01:17.573Z,19.48
2022-10-31T14:04:05.008Z,19.25
2022-10-31T14:06:42.721Z,19.27
2022-10-31T14:09:20.604Z,26.23
2022-10-31T14:11:48.887Z,21.90
2022-10-31T14:14:16.594Z,22.63
2022-10-31T14:16:44.890Z,19.13
2022-10-31T14:19:22.237Z,13.00
2022-10-31T14:21:49.826Z,18.42
2022-10-31T14:24:26.088Z,16.17
2022-10-31T14:27:00.248Z,10.98
2022-10-31T14:29:32.398Z,19.00
2022-10-31T14:32:15.491Z,13.80
2022-10-31T14:34:43.716Z,17.77
2022-10-31T14:37:29.511Z,22.23
2022-10-31T14:39:56.615Z,21.33
2022-10-31T14:42:42.510Z,15.50
2022-10-31T14:45:18.957Z,14.18
2022-10-31T14:47:55.020Z,18.92
2022-10-31T14:51:10.459Z,20.40
2022-10-31T14:53:58.843Z,21.40
2022-10-31T14:56:30.570Z,13.00
2022-10-31T14:58:59.523Z,29.75
2022-10-31T15:01:31.335Z,32.03
2022-10-31T15:04:23.200Z,21.80
2022-10-31T15:06:54.019Z,16.52
2022-10-31T15:09:23.856Z,16.63
2022-10-31T15:11:51.089Z,17.90
2022-10-31T15:14:26.258Z,18.48
2022-10-31T15:16:53.427Z,18.33
2022-10-31T15:19:28.164Z,19.48
2022-10-31T15:21:56.551Z,24.55
2022-10-31T15:24:25.254Z,18.33
2022-10-31T15:26:53.722Z,18.40
2022-10-31T15:29:25.201Z,17.10
2022-10-31T15:31:53.274Z,20.13
2022-10-31T15:34:26.304Z,22.52
2022-10-31T15:36:53.549Z,22.17
2022-10-31T15:39:20.928Z,22.40
2022-10-31T15:41:54.796Z,18.08
2022-10-31T15:44:22.312Z,21.98
2022-10-31T15:47:01.381Z,17.00
2022-10-31T15:49:31.268Z,18.60
2022-10-31T15:52:00.856Z,15.82
2022-10-31T15:54:28.339Z,21.73
2022-10-31T15:56:55.496Z,25.23
2022-10-31T15:59:24.641Z,22.48
2022-10-31T16:02:02.945Z,23.50
2022-10-31T16:04:30.628Z,21.67
2022-10-31T16:07:00.484Z,24.70
2022-10-31T16:09:27.599Z,25.48
2022-10-31T16:11:55.895Z,26.02
2022-10-31T16:14:27.676Z,22.55
2022-10-31T16:16:56.601Z,23.60
2022-10-31T16:19:23.748Z,26.25
2022-10-31T16:21:53.039Z,17.52
2022-10-31T16:24:49.517Z,19.75
2022-10-31T16:27:24.202Z,20.48
2022-10-31T16:29:51.306Z,25.13
2022-10-31T16:32:27.312Z,24.30
2022-10-31T16:35:00.375Z,24.58
2022-10-31T16:37:27.645Z,28.27
2022-10-31T16:39:54.729Z,25.90
2022-10-31T16:42:21.877Z,42.88
2022-10-31T16:44:49.735Z,47.78
2022-10-31T16:47:18.436Z,60.72
2022-10-31T16:49:47.921Z,52.67
2022-10-31T16:52:14.995Z,47.50
2022-10-31T16:54:42.092Z,39.60
2022-10-31T16:57:13.580Z,26.08
2022-10-31T16:59:40.709Z,43.47
2022-10-31T17:02:13.014Z,54.88
2022-10-31T17:04:40.215Z,42.15
2022-10-31T17:07:07.314Z,39.03
2022-10-31T17:09:34.403Z,43.70
2022-10-31T17:12:01.565Z,27.10
2022-10-31T17:14:28.720Z,28.40
2022-10-31T17:16:58.498Z,31.52
2022-10-31T17:19:25.590Z,26.38
2022-10-31T17:21:52.688Z,32.15
2022-10-31T17:24:19.748Z,29.83
2022-10-31T17:26:47.250Z,28.02
2022-10-31T17:29:15.130Z,36.35
2022-10-31T17:31:43.579Z,29.77
2022-10-31T17:34:10.709Z,30.60
2022-10-31T17:36:37.832Z,58.25
2022-10-31T17:39:07.391Z,49.90
2022-10-31T17:41:34.510Z,31.83
2022-10-31T17:44:02.226Z,28.15
2022-10-31T17:46:29.308Z,30.95
2022-10-31T17:48:56.408Z,41.05
2022-10-31T17:51:23.725Z,32.97
2022-10-31T17:53:50.870Z,31.58
2022-10-31T17:56:18.019Z,37.35
2022-10-31T17:58:45.123Z,43.70
2022-10-31T18:01:13.644Z,38.13
2022-10-31T18:03:41.122Z,40.10
2022-10-31T18:06:08.453Z,36.50
2022-10-31T18:08:36.431Z,51.85
2022-10-31T18:11:09.494Z,52.72
2022-10-31T18:13:37.152Z,36.88
2022-10-31T18:16:10.907Z,36.38
2022-10-31T18:18:38.202Z,34.33
2022-10-31T18:21:05.649Z,33.40
2022-10-31T18:23:32.830Z,34.70
2022-10-31T18:25:59.945Z,31.13
2022-10-31T18:28:27.043Z,33.15
2022-10-31T18:31:23.177Z,38.35
2022-10-31T18:33:53.345Z,30.40
2022-10-31T18:36:20.435Z,34.78
2022-10-31T18:38:47.699Z,37.65
2022-10-31T18:41:15.496Z,43.30
2022-10-31T18:43:42.888Z,31.90
2022-10-31T18:46:11.289Z,36.13
2022-10-31T18:48:38.584Z,33.97
2022-10-31T18:51:06.347Z,37.45
2022-10-31T18:53:33.710Z,39.03
2022-10-31T18:56:01.169Z,40.42
2022-10-31T18:58:28.902Z,45.72
2022-10-31T19:00:56.485Z,33.80
2022-10-31T19:03:26.183Z,46.03
2022-10-31T19:05:56.797Z,38.00
2022-10-31T19:08:23.985Z,35.17
2022-10-31T19:10:51.109Z,35.17
2022-10-31T19:13:18.256Z,31.58
2022-10-31T19:15:45.352Z,33.47
2022-10-31T19:18:12.437Z,46.47
2022-10-31T19:20:40.039Z,37.53
2022-10-31T19:23:07.429Z,34.00
2022-10-31T19:25:34.563Z,35.72
2022-10-31T19:28:01.902Z,33.08
2022-10-31T19:30:29.322Z,26.73
2022-10-31T19:32:56.431Z,27.67
2022-10-31T19:35:23.525Z,26.65
2022-10-31T19:37:50.646Z,25.83
2022-10-31T19:40:17.781Z,26.85
2022-10-31T19:42:44.889Z,26.48
2022-10-31T19:45:12.073Z,23.85
2022-10-31T19:47:39.204Z,23.38
2022-10-31T19:50:06.522Z,26.42
2022-10-31T19:52:34.736Z,21.63
2022-10-31T19:55:01.859Z,28.88
2022-10-31T19:57:48.946Z,23.92
2022-10-31T20:00:16.272Z,29.25
2022-10-31T20:02:43.357Z,25.33
2022-10-31T20:05:10.432Z,24.25
2022-10-31T20:07:37.529Z,29.88
2022-10-31T20:10:04.756Z,21.38
2022-10-31T20:12:33.738Z,26.65
2022-10-31T20:15:00.873Z,22.00
2022-10-31T20:17:27.963Z,18.75
2022-10-31T20:19:55.084Z,16.50
2022-10-31T20:22:22.332Z,19.23
2022-10-31T20:24:49.433Z,18.65
2022-10-31T20:27:16.499Z,18.30
2022-10-31T20:29:43.565Z,24.02
2022-10-31T20:32:10.688Z,28.20
2022-10-31T20:34:37.779Z,23.38
2022-10-31T20:37:04.909Z,33.85
2022-10-31T20:39:32.705Z,26.25
2022-10-31T20:41:59.802Z,27.08
2022-10-31T20:44:26.870Z,17.65
2022-10-31T20:46:53.960Z,17.98
2022-10-31T20:49:21.042Z,25.58
2022-10-31T20:51:48.171Z,15.60
2022-10-31T20:54:16.945Z,17.35
2022-10-31T20:56:44.140Z,24.20
2022-10-31T20:59:12.376Z,16.98
2022-10-31T21:01:39.697Z,22.27
2022-10-31T21:04:08.746Z,20.23
2022-10-31T21:06:35.844Z,18.58
2022-10-31T21:09:02.929Z,20.90
2022-10-31T21:11:30.023Z,18.90
2022-10-31T21:13:57.218Z,21.58
2022-10-31T21:16:28.659Z,27.58
2022-10-31T21:18:56.871Z,19.35
2022-10-31T21:21:29.007Z,21.67
2022-10-31T21:24:00.254Z,21.90
2022-10-31T21:26:27.938Z,26.40
2022-10-31T21:28:56.360Z,30.45
2022-10-31T21:31:23.945Z,21.35
2022-10-31T21:33:51.085Z,22.02
2022-10-31T21:36:18.196Z,26.70
2022-10-31T21:38:45.284Z,31.83
2022-10-31T21:41:13.820Z,26.50
2022-10-31T21:43:42.057Z,18.80
2022-10-31T21:46:13.385Z,23.65
2022-10-31T21:48:42.192Z,23.10
2022-10-31T21:51:10.331Z,19.15
2022-10-31T21:53:56.532Z,17.85
2022-10-31T21:56:23.995Z,20.90
2022-10-31T21:58:51.452Z,17.75
2022-10-31T22:01:18.954Z,14.38
2022-10-31T22:03:46.197Z,21.25
2022-10-31T22:06:13.714Z,17.25
2022-10-31T22:08:41.071Z,16.92
2022-10-31T22:11:18.240Z,18.35
2022-10-31T22:13:46.208Z,15.23
2022-10-31T22:16:14.272Z,17.15
2022-10-31T22:18:41.863Z,19.40
2022-10-31T22:21:14.063Z,16.20
2022-10-31T22:23:41.590Z,15.48
2022-10-31T22:26:14.093Z,19.88
2022-10-31T22:28:42.158Z,19.90
2022-10-31T22:33:42.921Z,18.85
2022-10-31T22:36:11.207Z,17.60
2022-10-31T22:38:40.117Z,13.73
2022-10-31T22:41:08.177Z,14.98
2022-10-31T22:43:35.427Z,16.10
2022-10-31T22:46:04.982Z,21.90
2022-10-31T22:48:33.305Z,17.23
2022-10-31T22:51:07.351Z,20.40
2022-10-31T22:53:35.444Z,14.25
2022-10-31T22:56:02.875Z,13.60
2022-10-31T22:58:30.623Z,13.70
2022-10-31T23:00:57.892Z,12.63
2022-10-31T23:03:25.404Z,18.75
2022-10-31T23:06:02.154Z,20.20
2022-10-31T23:08:29.895Z,12.85
2022-10-31T23:10:57.101Z,18.75
2022-10-31T23:13:42.957Z,13.40
2022-10-31T23:16:10.669Z,16.88
2022-10-31T23:18:49.554Z,13.90
2022-10-31T23:21:37.493Z,13.55
2022-10-31T23:24:04.762Z,18.52
2022-10-31T23:26:50.822Z,11.85
2022-10-31T23:29:17.885Z,16.02
2022-10-31T23:31:44.960Z,15.80
2022-10-31T23:34:12.079Z,15.27
2022-10-31T23:36:39.168Z,17.52
2022-10-31T23:39:06.276Z,12.57
2022-10-31T23:41:33.336Z,17.77
2022-10-31T23:44:00.466Z,15.35
2022-10-31T23:46:27.520Z,13.38
2022-10-31T23:48:54.645Z,16.90
2022-10-31T23:51:21.746Z,13.55
2022-10-31T23:53:48.859Z,16.08
2022-10-31T23:56:15.974Z,14.23
2022-10-31T23:58:43.042Z,13.85
